createdAt,value
2022-12-12T00:06:20.872Z,16.64
2022-12-12T00:21:19.276Z,16.50
2022-12-12T00:36:13.903Z,17.02
2022-12-12T00:51:09.408Z,16.78
2022-12-12T01:06:02.149Z,18.16
2022-12-12T01:20:51.802Z,17.14
2022-12-12T01:35:41.646Z,17.30
2022-12-12T01:50:30.374Z,15.64
2022-12-12T02:05:22.112Z,15.31
2022-12-12T02:20:37.628Z,15.33
2022-12-12T02:36:08.368Z,16.24
2022-12-12T02:51:02.762Z,16.47
2022-12-12T03:06:22.204Z,15.21
2022-12-12T03:21:18.554Z,15.87
2022-12-12T03:36:17.427Z,15.77
2022-12-12T03:51:16.569Z,14.98
2022-12-12T04:06:28.022Z,13.36
2022-12-12T04:22:03.679Z,13.06
2022-12-12T04:36:59.498Z,12.87
2022-12-12T04:51:48.421Z,12.72
2022-12-12T05:06:38.218Z,11.33
2022-12-12T05:21:28.277Z,11.38
2022-12-12T05:36:18.683Z,11.79
2022-12-12T05:51:08.216Z,11.20
2022-12-12T06:05:58.263Z,11.18
2022-12-12T06:20:47.928Z,9.98
2022-12-12T06:35:37.710Z,8.10
2022-12-12T06:50:27.734Z,7.49
2022-12-12T07:05:17.041Z,7.31
2022-12-12T07:34:56.932Z,8.60
2022-12-12T07:49:46.562Z,9.21
2022-12-12T08:04:36.560Z,10.34
2022-12-12T08:19:26.411Z,9.57
2022-12-12T08:49:06.350Z,10.09
2022-12-12T09:03:55.873Z,11.41
2022-12-12T09:18:49.032Z,12.23
2022-12-12T09:33:35.511Z,12.37
2022-12-12T09:48:28.471Z,13.34
2022-12-12T10:03:30.174Z,14.71
2022-12-12T10:18:33.020Z,15.96
2022-12-12T10:33:30.712Z,16.20
2022-12-12T10:48:24.017Z,16.49
2022-12-12T11:03:22.796Z,16.81
2022-12-12T11:33:22.193Z,16.52
2022-12-12T11:48:33.860Z,16.17
2022-12-12T12:03:50.915Z,16.18
2022-12-12T12:34:24.121Z,13.59
2022-12-12T12:49:19.820Z,13.31
2022-12-12T13:04:12.029Z,14.70
2022-12-12T13:19:05.188Z,14.22
2022-12-12T13:49:03.047Z,13.50
2022-12-12T14:03:57.457Z,15.48
2022-12-12T14:18:50.606Z,15.14
2022-12-12T14:34:07.283Z,14.17
2022-12-12T14:49:03.243Z,14.41
2022-12-12T15:03:57.140Z,12.37
2022-12-12T15:18:41.412Z,15.38
2022-12-12T15:33:31.527Z,16.27
2022-12-12T15:48:21.050Z,16.84
2022-12-12T16:03:16.587Z,17.48
2022-12-12T16:18:12.904Z,16.50
2022-12-12T16:33:20.935Z,19.92
2022-12-12T16:48:16.277Z,17.30
2022-12-12T17:03:05.294Z,19.10
2022-12-12T17:17:55.475Z,19.84
2022-12-12T17:33:16.511Z,20.07
2022-12-12T17:47:35.060Z,20.53
2022-12-12T18:02:25.459Z,18.70
2022-12-12T18:17:15.736Z,19.52
2022-12-12T18:32:06.111Z,17.36
2022-12-12T18:46:55.965Z,18.51
2022-12-12T19:01:46.150Z,18.61
2022-12-12T19:16:35.896Z,17.24
2022-12-12T19:31:25.808Z,17.92
2022-12-12T19:46:17.193Z,20.31
2022-12-12T20:01:09.199Z,20.67
2022-12-12T20:15:59.196Z,20.13
2022-12-12T20:30:53.294Z,19.09
2022-12-12T20:45:37.992Z,18.96
2022-12-12T21:00:29.004Z,18.32
2022-12-12T21:15:20.042Z,19.61
2022-12-12T21:30:08.579Z,18.73
2022-12-12T21:44:58.363Z,18.91
2022-12-12T21:59:46.620Z,18.24
2022-12-12T22:14:36.338Z,18.88
2022-12-12T22:29:25.761Z,19.72
2022-12-12T22:44:14.998Z,17.66
2022-12-12T22:59:04.945Z,17.48
2022-12-12T23:13:53.448Z,17.41
2022-12-12T23:28:42.274Z,14.07
2022-12-12T23:43:31.440Z,13.38
2022-12-12T23:58:20.858Z,12.93
